Time;durP1;ratioP1;P1;durP2;ratioP2;P2;SDS_P1;SDS_P2;PMS_P1;PMS_P2;Temp;Humidity;BMP_temperature;BMP_pressure;BME280_temperature;BME280_humidity;BME280_pressure;Samples;Min_cycle;Max_cycle;Signal;HPM_P1;HPM_P2
2023/12/28 00:01:07;;;;;;;8.82;6.13;;;;;;;18.14;73.83;100730.72;5003209;28;20577;-37
2023/12/28 00:03:33;;;;;;;9.45;5.25;;;;;;;18.12;74.00;100726.31;4998981;28;20057;-37
2023/12/28 00:05:58;;;;;;;7.95;4.80;;;;;;;18.13;74.17;100727.13;4989528;28;20030;-36
2023/12/28 00:08:24;;;;;;;8.55;4.50;;;;;;;18.12;74.24;100709.03;5001008;28;20415;-37
2023/12/28 00:10:49;;;;;;;8.50;4.40;;;;;;;18.11;74.39;100718.34;5002035;28;20029;-38
2023/12/28 00:13:14;;;;;;;7.25;3.95;;;;;;;18.10;74.41;100720.28;5000034;28;20025;-37
2023/12/28 00:15:40;;;;;;;6.07;3.55;;;;;;;18.09;74.30;100734.28;4999726;28;20121;-38
2023/12/28 00:18:05;;;;;;;6.40;3.33;;;;;;;18.09;74.38;100729.63;4983881;28;20026;-38
2023/12/28 00:20:30;;;;;;;10.30;3.63;;;;;;;18.10;74.61;100724.97;4999534;28;20044;-38
2023/12/28 00:22:58;;;;;;;6.10;3.20;;;;;;;18.08;74.64;100727.97;4981359;28;20026;-37
2023/12/28 00:25:23;;;;;;;5.72;2.80;;;;;;;18.07;74.66;100728.25;5006979;28;20100;-36
2023/12/28 00:27:49;;;;;;;5.38;2.95;;;;;;;18.08;74.71;100738.13;5000310;28;20112;-37
2023/12/28 00:30:16;;;;;;;5.38;2.65;;;;;;;18.07;74.74;100726.31;5001270;28;20041;-38
2023/12/28 00:32:44;;;;;;;5.03;2.63;;;;;;;18.06;74.98;100730.19;4979199;28;20473;-37
2023/12/28 00:35:09;;;;;;;8.27;2.63;;;;;;;18.06;74.90;100734.84;5002724;28;20042;-37
2023/12/28 00:37:35;;;;;;;6.80;2.75;;;;;;;18.06;74.94;100734.84;5000872;28;20033;-38
2023/12/28 00:40:00;;;;;;;5.82;2.42;;;;;;;18.06;75.22;100735.69;4999483;28;20478;-37
2023/12/28 00:42:26;;;;;;;6.93;2.28;;;;;;;18.06;74.88;100738.41;5004765;28;20032;-37
2023/12/28 00:44:52;;;;;;;6.10;2.47;;;;;;;18.07;74.94;100736.47;5001133;28;20113;-36
2023/12/28 00:47:18;;;;;;;5.50;2.70;;;;;;;18.05;75.13;100734.03;4998905;28;20095;-37
2023/12/28 00:49:43;;;;;;;5.10;2.40;;;;;;;18.04;75.19;100740.59;5004474;28;20104;-39
2023/12/28 00:52:08;;;;;;;5.25;2.80;;;;;;;18.04;75.12;100737.88;4983893;28;20045;-38
2023/12/28 00:54:36;;;;;;;6.72;2.70;;;;;;;18.03;75.21;100735.41;5003161;28;20025;-38
2023/12/28 00:57:03;;;;;;;4.28;2.10;;;;;;;18.00;75.55;100731.31;4983005;28;20112;-39
2023/12/28 00:59:29;;;;;;;5.10;2.20;;;;;;;17.98;75.42;100727.19;4996152;28;20267;-38
2023/12/28 01:01:55;;;;;;;5.15;2.13;;;;;;;17.95;75.72;100725.81;4981043;28;20033;-37
2023/12/28 01:04:23;;;;;;;6.82;2.30;;;;;;;17.95;75.66;100725.81;5002473;28;20501;-38
2023/12/28 01:06:48;;;;;;;6.93;2.47;;;;;;;17.95;75.50;100731.31;5001025;28;20382;-39
2023/12/28 01:09:14;;;;;;;6.55;2.60;;;;;;;17.93;75.92;100728.81;5000720;28;20037;-38
2023/12/28 01:11:39;;;;;;;4.25;1.98;;;;;;;17.93;75.78;100736.22;4998132;28;20157;-37
2023/12/28 01:14:04;;;;;;;4.75;2.13;;;;;;;17.93;76.06;100733.50;5006382;28;20482;-36
2023/12/28 01:16:30;;;;;;;6.38;1.98;;;;;;;17.92;76.04;100729.91;4999809;28;20922;-38
2023/12/28 01:18:55;;;;;;;5.25;2.05;;;;;;;17.93;75.83;100722.53;5000455;28;20064;-39
2023/12/28 01:21:21;;;;;;;4.40;2.30;;;;;;;17.93;75.84;100730.75;5005175;28;20025;-38
2023/12/28 01:23:46;;;;;;;3.78;2.05;;;;;;;17.93;76.03;100725.25;5001291;28;20061;-38
2023/12/28 01:26:15;;;;;;;6.60;2.00;;;;;;;17.93;76.02;100722.53;4985268;28;20017;-39
2023/12/28 01:28:40;;;;;;;3.50;1.90;;;;;;;17.91;75.83;100730.19;5003657;28;20475;-39
2023/12/28 01:31:06;;;;;;;4.75;1.95;;;;;;;17.92;76.09;100729.09;5000106;28;20060;-37
2023/12/28 01:33:31;;;;;;;4.57;1.90;;;;;;;17.90;76.02;100728.53;5007012;28;20029;-38
2023/12/28 01:35:56;;;;;;;8.40;2.38;;;;;;;17.90;76.32;100736.78;5000088;28;20106;-38
2023/12/28 01:38:22;;;;;;;3.40;1.85;;;;;;;17.89;76.21;100740.59;5000471;28;20021;-38
2023/12/28 01:40:47;;;;;;;3.75;1.77;;;;;;;17.89;76.33;100737.88;5001235;28;20033;-38
2023/12/28 01:43:13;;;;;;;3.03;1.60;;;;;;;17.90;76.20;100745.84;5002476;28;20038;-38
2023/12/28 01:45:38;;;;;;;8.98;2.30;;;;;;;17.90;76.33;100747.75;5007667;28;20064;-38
2023/12/28 01:48:04;;;;;;;5.13;2.20;;;;;;;17.90;76.29;100748.59;5001475;28;20047;-38
2023/12/28 01:50:31;;;;;;;5.30;2.08;;;;;;;17.91;76.38;100757.63;5000301;28;20266;-38
2023/12/28 01:52:58;;;;;;;5.60;2.35;;;;;;;17.91;76.31;100746.66;4983186;28;20032;-37
2023/12/28 01:55:25;;;;;;;5.72;1.90;;;;;;;17.91;76.41;100757.63;5002412;28;20372;-37
2023/12/28 01:57:50;;;;;;;6.55;2.05;;;;;;;17.91;76.49;100763.91;4967577;28;20518;-38
2023/12/28 02:00:16;;;;;;;5.30;2.10;;;;;;;17.91;76.40;100752.94;4983625;28;20066;-38
2023/12/28 02:02:42;;;;;;;4.53;1.90;;;;;;;17.92;76.49;100757.31;4983748;28;20037;-37
2023/12/28 02:05:08;;;;;;;4.97;2.00;;;;;;;17.91;76.37;100741.97;4999827;28;20083;-38
2023/12/28 02:07:36;;;;;;;5.28;2.30;;;;;;;17.91;76.48;100758.41;5002426;28;20290;-38
2023/12/28 02:10:01;;;;;;;5.90;1.90;;;;;;;17.90;76.27;100759.56;5000477;28;20104;-37
2023/12/28 02:12:27;;;;;;;4.60;2.05;;;;;;;17.90;76.48;100765.03;4984695;28;20049;-38
2023/12/28 02:14:52;;;;;;;5.13;2.22;;;;;;;17.87;76.64;100748.31;4986236;28;20028;-37
2023/12/28 02:17:32;;;;;;;5.72;2.17;;;;;;;17.88;76.55;100753.50;4986328;28;20217;-37
2023/12/28 02:19:58;;;;;;;5.68;2.00;;;;;;;17.86;76.56;100736.50;4996065;28;20561;-38
2023/12/28 02:22:25;;;;;;;4.72;2.05;;;;;;;17.86;76.64;100743.91;5001582;28;20025;-36
2023/12/28 02:25:19;;;;;;;4.07;1.88;;;;;;;17.86;76.33;100744.72;5006325;28;20497;-39
2023/12/28 02:27:46;;;;;;;3.80;1.88;;;;;;;17.86;76.54;100746.66;4989325;28;20053;-38
2023/12/28 02:30:13;;;;;;;5.47;1.85;;;;;;;17.84;76.49;100741.47;5003263;28;20037;-38
2023/12/28 02:32:50;;;;;;;3.22;1.73;;;;;;;17.84;76.67;100748.84;4992494;28;20165;-37
2023/12/28 02:35:19;;;;;;;4.80;1.77;;;;;;;17.84;76.50;100754.34;4991862;28;20026;-38
2023/12/28 02:37:48;;;;;;;4.55;1.80;;;;;;;17.84;76.43;100754.34;4971432;28;20545;-38
2023/12/28 02:40:15;;;;;;;6.60;1.92;;;;;;;17.84;76.34;100751.59;4976041;28;20379;-38
2023/12/28 02:42:40;;;;;;;4.13;1.95;;;;;;;17.83;76.48;100758.19;4985623;28;20058;-37
2023/12/28 02:45:06;;;;;;;5.38;2.20;;;;;;;17.83;76.17;100769.13;4991968;28;20438;-38
2023/12/28 02:47:31;;;;;;;4.45;1.85;;;;;;;17.84;76.30;100751.59;5009614;28;20037;-38
2023/12/28 02:49:59;;;;;;;4.18;1.92;;;;;;;17.85;76.40;100758.72;5001134;28;20022;-38
2023/12/28 02:52:24;;;;;;;6.53;1.90;;;;;;;17.86;76.33;100765.84;5009151;28;20360;-38
2023/12/28 02:54:50;;;;;;;5.72;1.70;;;;;;;17.84;76.22;100762.56;4989808;28;20036;-38
2023/12/28 02:57:18;;;;;;;4.05;1.98;;;;;;;17.81;76.16;100751.03;4995747;28;20138;-39
2023/12/28 02:59:44;;;;;;;5.43;1.80;;;;;;;17.81;76.14;100752.97;4999409;28;20058;-37
2023/12/28 03:02:10;;;;;;;5.70;2.17;;;;;;;17.79;75.96;100753.25;5002049;28;20159;-37
2023/12/28 03:04:35;;;;;;;6.68;1.90;;;;;;;17.78;76.14;100748.88;4989047;28;20544;-38
2023/12/28 03:07:01;;;;;;;5.05;1.80;;;;;;;17.79;76.29;100752.41;4992624;28;20062;-37
2023/12/28 03:09:26;;;;;;;6.70;1.90;;;;;;;17.78;76.17;100750.78;4986312;28;20032;-38
2023/12/28 03:11:52;;;;;;;3.30;2.05;;;;;;;17.77;76.41;100749.16;4995868;28;20427;-38
2023/12/28 03:14:17;;;;;;;4.18;1.90;;;;;;;17.76;76.42;100736.53;4985744;28;20031;-38
2023/12/28 03:16:43;;;;;;;4.05;1.80;;;;;;;17.74;76.38;100739.56;4997853;28;20037;-37
2023/12/28 03:19:08;;;;;;;4.03;1.90;;;;;;;17.73;76.42;100739.81;4988618;28;20123;-39
2023/12/28 03:21:38;;;;;;;4.57;1.75;;;;;;;17.70;76.57;100735.72;5006470;28;20059;-37
2023/12/28 03:24:04;;;;;;;4.80;1.92;;;;;;;17.69;76.67;100725.03;5004898;28;20057;-37
2023/12/28 03:26:29;;;;;;;6.40;1.95;;;;;;;17.69;76.71;100727.78;5004642;28;20060;-38
2023/12/28 03:28:55;;;;;;;5.95;2.00;;;;;;;17.69;76.53;100719.56;5010472;28;20037;-39
2023/12/28 03:31:20;;;;;;;6.13;1.98;;;;;;;17.69;76.69;100725.03;4983782;28;20037;-38
2023/12/28 03:33:45;;;;;;;4.50;2.03;;;;;;;17.69;76.13;100731.34;5004001;28;20076;-37
2023/12/28 03:36:18;;;;;;;6.03;2.10;;;;;;;17.69;76.35;100725.03;4980179;28;20034;-39
2023/12/28 03:38:43;;;;;;;5.68;2.20;;;;;;;17.69;76.71;100734.06;5003562;28;20425;-38
2023/12/28 03:41:19;;;;;;;4.20;1.83;;;;;;;17.68;76.41;100734.34;4985715;28;20026;-38
2023/12/28 03:43:45;;;;;;;3.70;1.88;;;;;;;17.67;76.60;100728.06;5003258;28;20026;-38
2023/12/28 03:46:10;;;;;;;5.82;1.80;;;;;;;17.67;76.74;100721.75;4993267;28;20026;-38
2023/12/28 03:48:36;;;;;;;3.67;1.60;;;;;;;17.66;76.61;100723.69;4999542;28;20084;-36
2023/12/28 03:51:02;;;;;;;6.55;2.20;;;;;;;17.65;76.58;100720.09;4990626;28;20033;-37
2023/12/28 03:53:28;;;;;;;7.22;2.55;;;;;;;17.66;76.49;100720.94;4998987;28;20077;-38
2023/12/28 03:55:53;;;;;;;5.00;1.92;;;;;;;17.65;76.41;100722.84;4993746;28;20611;-37
2023/12/28 03:58:19;;;;;;;4.45;1.83;;;;;;;17.65;76.60;100719.28;4998947;28;20486;-38
2023/12/28 04:00:44;;;;;;;7.43;2.25;;;;;;;17.64;76.56;100723.13;5005723;28;20053;-39
2023/12/28 04:03:09;;;;;;;5.10;2.10;;;;;;;17.64;76.52;100717.66;5000870;28;20036;-38
2023/12/28 04:05:35;;;;;;;6.60;2.22;;;;;;;17.64;76.46;100731.34;5008666;28;20096;-37
2023/12/28 04:08:01;;;;;;;8.93;2.00;;;;;;;17.63;76.45;100727.81;4995169;28;20095;-38
2023/12/28 04:10:31;;;;;;;5.63;1.98;;;;;;;17.63;76.34;100722.31;5003004;28;20491;-37
2023/12/28 04:12:57;;;;;;;10.25;2.13;;;;;;;17.64;76.29;100726.72;5004886;28;20017;-37
2023/12/28 04:15:26;;;;;;;7.63;2.20;;;;;;;17.63;76.45;100730.53;5003491;28;20422;-39
2023/12/28 04:17:51;;;;;;;8.23;2.13;;;;;;;17.62;76.45;100742.59;5002162;28;20033;-38
2023/12/28 04:20:17;;;;;;;8.07;2.30;;;;;;;17.62;76.38;100730.78;5003825;28;20029;-38
2023/12/28 04:22:43;;;;;;;5.97;2.20;;;;;;;17.60;76.37;100728.34;4986879;28;20042;-38
2023/12/28 04:25:09;;;;;;;8.40;2.20;;;;;;;17.59;76.35;100740.41;5005739;28;20409;-37
2023/12/28 04:27:34;;;;;;;7.93;2.28;;;;;;;17.60;76.38;100735.75;5003366;28;20197;-36
2023/12/28 04:30:00;;;;;;;7.45;2.33;;;;;;;17.60;76.33;100735.75;5003144;28;20029;-39
2023/12/28 04:32:26;;;;;;;7.95;2.13;;;;;;;17.61;76.16;100748.38;5001999;28;20036;-37
2023/12/28 04:34:51;;;;;;;6.43;1.98;;;;;;;17.61;76.27;100734.66;5002565;28;20080;-37
2023/12/28 04:37:16;;;;;;;5.40;1.80;;;;;;;17.59;76.38;100731.38;5003827;28;20052;-37
2023/12/28 04:39:42;;;;;;;7.68;2.50;;;;;;;17.57;76.59;100736.28;5006575;28;20029;-39
2023/12/28 04:42:07;;;;;;;6.18;2.00;;;;;;;17.58;76.54;100746.16;5003826;28;20113;-38
2023/12/28 04:44:38;;;;;;;6.97;2.10;;;;;;;17.55;76.26;100733.84;5001524;28;20041;-38
2023/12/28 04:47:04;;;;;;;8.50;2.22;;;;;;;17.55;76.34;100735.78;5001688;28;20025;-37
2023/12/28 04:49:29;;;;;;;7.72;2.53;;;;;;;17.55;76.69;100744.00;5002586;28;20048;-37
2023/12/28 04:51:55;;;;;;;7.35;2.28;;;;;;;17.54;76.50;100747.81;4999362;28;20386;-37
2023/12/28 04:54:21;;;;;;;8.13;2.13;;;;;;;17.53;76.48;100741.50;5002872;28;20513;-38
2023/12/28 04:56:46;;;;;;;5.63;1.77;;;;;;;17.55;76.59;100749.47;5001933;28;20034;-43
2023/12/28 04:59:11;;;;;;;9.30;2.05;;;;;;;17.54;76.36;100751.38;5001424;28;20030;-39
2023/12/28 05:01:43;;;;;;;7.97;2.25;;;;;;;17.54;76.45;100751.38;5001661;28;20038;-37
2023/12/28 05:04:09;;;;;;;9.82;2.20;;;;;;;17.55;76.40;100750.28;4987485;28;20045;-38
2023/12/28 05:06:35;;;;;;;8.45;2.05;;;;;;;17.58;76.37;100759.88;5000237;28;20196;-39
2023/12/28 05:09:01;;;;;;;8.40;2.47;;;;;;;17.60;76.27;100755.75;4999665;28;20037;-39
2023/12/28 05:11:26;;;;;;;6.35;2.25;;;;;;;17.64;76.53;100761.50;5001198;28;20038;-39
2023/12/28 05:13:52;;;;;;;7.00;2.40;;;;;;;17.69;76.61;100755.19;5000357;28;20022;-39
2023/12/28 05:16:17;;;;;;;4.82;2.03;;;;;;;17.74;76.61;100755.19;4984182;28;20053;-38
2023/12/28 05:18:42;;;;;;;5.18;1.92;;;;;;;17.79;76.44;100760.66;5002039;28;20040;-38
2023/12/28 05:21:08;;;;;;;9.10;2.33;;;;;;;17.86;76.21;100757.63;5005217;28;20545;-38
2023/12/28 05:23:33;;;;;;;7.82;2.40;;;;;;;17.93;76.29;100764.47;5002817;28;20290;-38
2023/12/28 05:25:58;;;;;;;6.75;2.40;;;;;;;18.01;75.96;100765.84;4995025;28;20132;-38
2023/12/28 05:28:24;;;;;;;7.97;2.58;;;;;;;18.09;75.86;100767.19;5001789;28;20391;-38
2023/12/28 05:30:49;;;;;;;8.25;2.20;;;;;;;18.21;75.64;100769.59;4989575;28;20053;-38
2023/12/28 05:33:15;;;;;;;8.60;3.03;;;;;;;18.28;75.19;100753.69;4987565;28;20033;-38
2023/12/28 05:35:40;;;;;;;8.10;2.38;;;;;;;18.36;75.45;100755.03;5004821;28;20072;-39
2023/12/28 05:38:05;;;;;;;6.68;2.28;;;;;;;18.45;75.52;100764.31;5001511;28;20399;-38
2023/12/28 05:40:31;;;;;;;9.05;2.83;;;;;;;18.55;75.03;100755.19;4996104;28;20281;-38
2023/12/28 05:42:56;;;;;;;6.45;2.42;;;;;;;18.64;75.13;100752.69;4983753;28;20021;-38
2023/12/28 05:45:21;;;;;;;8.43;2.70;;;;;;;18.74;74.85;100758.13;5000266;28;20234;-38
2023/12/28 05:47:47;;;;;;;6.70;2.35;;;;;;;18.84;74.23;100762.72;4999131;28;20129;-38
2023/12/28 05:50:12;;;;;;;9.43;2.60;;;;;;;18.91;74.05;100752.28;5000414;28;20026;-38
2023/12/28 05:52:38;;;;;;;12.40;2.83;;;;;;;19.02;73.99;100761.28;5000159;28;20022;-38
2023/12/28 05:55:04;;;;;;;10.15;2.60;;;;;;;19.11;73.64;100767.78;5001910;28;20219;-37
2023/12/28 05:57:30;;;;;;;10.50;2.90;;;;;;;19.17;73.44;100755.66;4982497;28;20562;-38
2023/12/28 05:59:56;;;;;;;10.77;3.03;;;;;;;19.25;72.77;100754.22;5002989;28;20064;-37
2023/12/28 06:02:22;;;;;;;8.82;2.80;;;;;;;19.28;72.54;100756.41;5000335;28;20057;-38
2023/12/28 06:04:47;;;;;;;7.32;2.50;;;;;;;19.33;71.94;100763.78;5006733;28;20117;-37
2023/12/28 06:07:12;;;;;;;13.82;3.60;;;;;;;19.33;72.18;100761.84;4990039;28;20040;-38
2023/12/28 06:09:38;;;;;;;10.98;3.15;;;;;;;19.32;72.56;100759.38;4985417;28;20519;-37
2023/12/28 06:12:05;;;;;;;10.52;2.97;;;;;;;19.31;72.03;100766.81;4988125;28;20040;-39
2023/12/28 06:14:30;;;;;;;10.98;3.17;;;;;;;19.31;71.72;100779.72;5005950;28;20456;-38
2023/12/28 06:16:55;;;;;;;9.88;3.00;;;;;;;19.30;71.75;100775.34;5005865;28;20029;-38
2023/12/28 06:19:21;;;;;;;11.32;3.33;;;;;;;19.28;71.57;100772.88;5007825;28;20032;-37
2023/12/28 06:21:48;;;;;;;12.90;3.03;;;;;;;19.26;71.88;100775.09;5007570;28;20034;-37
2023/12/28 06:24:13;;;;;;;13.18;3.60;;;;;;;19.23;71.41;100787.47;5007133;28;20052;-38
2023/12/28 06:26:43;;;;;;;7.35;2.72;;;;;;;19.22;71.78;100780.34;5004318;28;20033;-37
2023/12/28 06:29:09;;;;;;;11.25;3.50;;;;;;;19.19;71.59;100780.91;5014574;28;20061;-40
2023/12/28 06:31:36;;;;;;;9.88;3.08;;;;;;;19.16;71.73;100777.94;4986189;28;20037;-38
2023/12/28 06:34:05;;;;;;;12.65;3.13;;;;;;;19.13;71.60;100764.75;4992966;28;20033;-38
2023/12/28 06:36:30;;;;;;;9.75;3.20;;;;;;;19.12;71.84;100772.19;5006338;28;20080;-37
2023/12/28 06:38:56;;;;;;;9.65;2.80;;;;;;;19.09;71.36;100778.22;5002593;28;20037;-37
2023/12/28 06:41:22;;;;;;;12.73;3.75;;;;;;;19.06;71.33;100784.31;5008830;28;20505;-37
2023/12/28 06:43:47;;;;;;;11.55;3.30;;;;;;;19.01;71.34;100781.59;5000387;28;20060;-37
2023/12/28 06:46:13;;;;;;;11.05;3.20;;;;;;;18.97;71.31;100789.59;5003018;28;20088;-37
2023/12/28 06:48:40;;;;;;;12.38;3.28;;;;;;;18.96;71.51;100795.34;5001541;28;20037;-37
2023/12/28 06:51:06;;;;;;;10.32;3.72;;;;;;;18.91;71.45;100809.97;5002459;28;20379;-37
2023/12/28 06:53:31;;;;;;;10.82;2.95;;;;;;;18.88;71.74;100829.69;5003309;28;20041;-37
2023/12/28 06:55:57;;;;;;;15.00;3.83;;;;;;;18.85;71.41;100819.28;5008600;28;20026;-39
2023/12/28 06:58:22;;;;;;;11.55;3.38;;;;;;;18.80;71.47;100817.41;5002828;28;20032;-39
2023/12/28 07:00:47;;;;;;;11.40;3.30;;;;;;;18.79;71.54;100809.44;5003866;28;20025;-38
2023/12/28 07:03:13;;;;;;;10.00;2.95;;;;;;;18.76;71.43;100832.78;4999488;28;20063;-38
2023/12/28 07:05:38;;;;;;;11.75;3.55;;;;;;;18.73;71.55;100827.84;5002286;28;20030;-38
2023/12/28 07:08:04;;;;;;;11.93;3.30;;;;;;;18.69;71.65;100824.03;4996981;28;20507;-37
2023/12/28 07:10:29;;;;;;;15.13;3.47;;;;;;;18.66;71.88;100824.59;5002823;28;20034;-37
2023/12/28 07:12:54;;;;;;;15.73;3.33;;;;;;;18.63;71.66;100833.41;5007036;28;20065;-38
2023/12/28 07:15:20;;;;;;;13.23;3.45;;;;;;;18.59;71.63;100841.38;5003375;28;20030;-38
2023/12/28 07:17:45;;;;;;;10.38;3.00;;;;;;;18.57;71.54;100838.09;4985973;28;20113;-38
2023/12/28 07:20:11;;;;;;;11.68;3.15;;;;;;;18.54;71.85;100847.72;5003322;28;20116;-38
2023/12/28 07:22:37;;;;;;;10.93;3.30;;;;;;;18.52;72.00;100851.84;5004463;28;20167;-39
2023/12/28 07:25:07;;;;;;;13.40;3.67;;;;;;;18.50;71.83;100852.09;5004139;28;20021;-39
2023/12/28 07:27:34;;;;;;;13.38;2.72;;;;;;;18.48;71.79;100848.00;5002994;28;20037;-40
2023/12/28 07:29:59;;;;;;;10.45;2.72;;;;;;;18.46;71.61;100852.97;5001210;28;20529;-38
2023/12/28 07:32:25;;;;;;;10.95;3.10;;;;;;;18.41;71.73;100854.59;5003011;28;20058;-38
2023/12/28 07:34:53;;;;;;;12.13;3.38;;;;;;;18.37;72.02;100863.66;4994125;28;20397;-38
2023/12/28 07:37:18;;;;;;;12.55;3.30;;;;;;;18.34;72.04;100848.56;4998439;28;20172;-39
2023/12/28 07:39:43;;;;;;;9.52;2.78;;;;;;;18.32;71.99;100853.53;5004417;28;20533;-39
2023/12/28 07:42:09;;;;;;;11.25;3.15;;;;;;;18.30;72.14;100857.66;5002835;28;20084;-37
2023/12/28 07:44:35;;;;;;;13.48;3.55;;;;;;;18.28;72.21;100841.47;5005246;28;20049;-38
2023/12/28 07:47:00;;;;;;;10.43;2.97;;;;;;;18.26;72.20;100851.91;5005117;28;20462;-38
2023/12/28 07:49:26;;;;;;;10.48;3.33;;;;;;;18.26;72.21;100858.22;5005925;28;20049;-38
2023/12/28 07:51:51;;;;;;;13.60;3.65;;;;;;;18.24;72.40;100857.66;5002297;28;20410;-38
2023/12/28 07:54:16;;;;;;;12.63;3.45;;;;;;;18.21;72.81;100858.22;5010662;28;20080;-38
2023/12/28 07:56:42;;;;;;;13.02;3.25;;;;;;;18.21;72.59;100858.22;5007715;28;20029;-39
2023/12/28 07:59:09;;;;;;;12.23;3.50;;;;;;;18.20;72.42;100855.78;5002699;28;20498;-38
2023/12/28 08:01:34;;;;;;;11.63;3.00;;;;;;;18.20;72.53;100859.31;5000719;28;20401;-38
2023/12/28 08:04:00;;;;;;;13.07;3.10;;;;;;;18.17;72.78;100868.09;4999184;28;20034;-39
2023/12/28 08:06:25;;;;;;;16.60;3.35;;;;;;;18.18;72.23;100871.69;5005570;28;20026;-37
2023/12/28 08:08:51;;;;;;;16.38;3.30;;;;;;;18.15;72.33;100867.56;4994777;28;20398;-39
2023/12/28 08:11:16;;;;;;;11.00;3.40;;;;;;;18.14;72.75;100865.13;5002050;28;20037;-39
2023/12/28 08:13:42;;;;;;;11.23;3.05;;;;;;;18.11;72.44;100875.53;4999349;28;20053;-38
2023/12/28 08:16:07;;;;;;;13.25;3.38;;;;;;;18.08;72.70;100876.06;4989156;28;20423;-38
2023/12/28 08:18:32;;;;;;;12.68;3.28;;;;;;;18.08;72.74;100883.50;5000506;28;20569;-39
2023/12/28 08:20:58;;;;;;;12.10;3.20;;;;;;;18.06;72.93;100878.28;4992853;28;20087;-39
2023/12/28 08:23:24;;;;;;;12.07;2.85;;;;;;;18.05;73.07;100875.78;5006245;28;20737;-39
2023/12/28 08:25:49;;;;;;;15.63;3.50;;;;;;;18.06;72.94;100882.94;5005218;28;20021;-38
2023/12/28 08:28:15;;;;;;;15.70;3.40;;;;;;;18.05;73.02;100875.78;5001475;28;20029;-39
2023/12/28 08:30:40;;;;;;;11.40;2.90;;;;;;;18.02;73.25;100877.16;4997880;28;20124;-38
2023/12/28 08:33:05;;;;;;;10.90;2.80;;;;;;;18.01;73.34;100877.47;5005536;28;20282;-37
2023/12/28 08:35:31;;;;;;;10.85;2.78;;;;;;;18.01;73.28;100889.22;4999874;28;21432;-37
2023/12/28 08:37:56;;;;;;;11.13;2.78;;;;;;;18.01;73.09;100886.50;4993613;28;20045;-37
2023/12/28 08:40:22;;;;;;;10.98;2.92;;;;;;;18.00;73.13;100890.34;4971735;28;20430;-37
2023/12/28 08:42:47;;;;;;;11.27;2.97;;;;;;;17.99;73.54;100887.88;5002969;28;20084;-37
2023/12/28 08:45:13;;;;;;;9.85;2.83;;;;;;;17.99;73.46;100893.34;4999621;28;20037;-37
2023/12/28 08:47:38;;;;;;;13.88;3.28;;;;;;;17.97;73.63;100893.63;4995170;28;20333;-36
2023/12/28 08:50:04;;;;;;;11.63;3.20;;;;;;;17.95;73.79;100882.94;4985500;28;20026;-39
2023/12/28 08:52:29;;;;;;;10.80;3.28;;;;;;;17.96;73.58;100903.78;4984878;28;20446;-37
2023/12/28 08:54:55;;;;;;;12.55;3.22;;;;;;;17.97;73.37;100890.91;5001924;28;20041;-36
2023/12/28 08:57:20;;;;;;;13.02;3.00;;;;;;;17.96;73.55;100890.09;4999748;28;20026;-37
2023/12/28 08:59:46;;;;;;;11.55;2.70;;;;;;;17.95;73.71;100887.59;5000678;28;20041;-37
2023/12/28 09:02:11;;;;;;;14.48;3.17;;;;;;;17.94;73.89;100892.28;5005845;28;20520;-38
2023/12/28 09:04:38;;;;;;;14.07;3.05;;;;;;;17.95;73.76;100918.59;5003786;28;20228;-37
2023/12/28 09:07:04;;;;;;;9.82;2.95;;;;;;;17.94;73.62;100896.91;4999572;28;20069;-37
2023/12/28 09:09:29;;;;;;;21.13;3.60;;;;;;;17.94;74.07;100899.66;5000729;28;20042;-38
2023/12/28 09:11:54;;;;;;;19.83;3.17;;;;;;;17.98;74.49;100899.94;4985493;28;20022;-35
2023/12/28 09:14:20;;;;;;;17.45;3.42;;;;;;;18.02;74.18;100906.53;5001676;28;20048;-36
2023/12/28 09:16:46;;;;;;;14.52;2.80;;;;;;;18.07;73.87;100910.06;4996389;28;20023;-38
2023/12/28 09:19:12;;;;;;;17.73;3.38;;;;;;;18.10;74.08;100923.25;5000461;28;20577;-38
2023/12/28 09:21:38;;;;;;;13.77;3.40;;;;;;;18.13;74.10;100919.13;5000622;28;20062;-38
2023/12/28 09:24:03;;;;;;;14.40;3.15;;;;;;;18.15;74.59;100918.84;5000604;28;20092;-37
2023/12/28 09:26:28;;;;;;;12.13;3.03;;;;;;;18.18;74.82;100929.28;4984586;28;20435;-38
2023/12/28 09:28:54;;;;;;;15.10;3.33;;;;;;;18.22;74.71;100936.69;5004555;28;20153;-39
2023/12/28 09:31:20;;;;;;;13.93;3.47;;;;;;;18.27;74.73;100933.09;4996508;28;20045;-35
2023/12/28 09:33:45;;;;;;;12.30;3.35;;;;;;;18.32;74.91;100952.31;4992418;28;20034;-34
2023/12/28 09:36:14;;;;;;;11.43;2.95;;;;;;;18.38;74.93;100942.97;4990301;28;20030;-36
2023/12/28 09:38:39;;;;;;;10.95;3.17;;;;;;;18.43;74.73;100950.38;4991085;28;20038;-36
2023/12/28 09:41:11;;;;;;;11.48;3.08;;;;;;;18.49;74.81;100951.19;4993008;28;20030;-35
2023/12/28 09:43:43;;;;;;;11.60;2.83;;;;;;;18.53;74.76;100960.53;4990315;28;20030;-35
2023/12/28 09:46:11;;;;;;;13.07;3.33;;;;;;;18.57;75.31;100954.19;4986704;28;20475;-35
2023/12/28 09:48:37;;;;;;;11.95;3.35;;;;;;;18.62;74.97;100960.78;4992739;28;20030;-35
2023/12/28 09:51:03;;;;;;;15.32;3.75;;;;;;;18.65;74.94;100955.56;4978153;28;20030;-39
2023/12/28 09:53:29;;;;;;;13.90;3.08;;;;;;;18.68;75.18;100960.47;4992651;28;20045;-38
2023/12/28 09:55:54;;;;;;;14.25;3.33;;;;;;;18.72;75.29;100950.59;4975326;28;20105;-39
2023/12/28 09:58:21;;;;;;;11.52;3.08;;;;;;;18.75;75.60;100961.00;4991961;28;20026;-39
2023/12/28 10:00:48;;;;;;;12.10;3.33;;;;;;;18.78;75.27;100954.13;4990254;28;20056;-38
2023/12/28 10:03:14;;;;;;;11.95;2.72;;;;;;;18.81;75.41;100963.72;4972274;28;20475;-38
2023/12/28 10:05:43;;;;;;;16.60;4.13;;;;;;;18.82;75.25;100954.41;4990058;28;20090;-39
2023/12/28 10:08:11;;;;;;;11.13;3.30;;;;;;;18.85;75.24;100956.59;4989635;28;20181;-38
2023/12/28 10:10:37;;;;;;;12.18;3.63;;;;;;;18.87;75.28;100962.59;4993400;28;20105;-38
2023/12/28 10:13:02;;;;;;;8.18;2.60;;;;;;;18.90;74.68;100970.31;4992629;28;20031;-38
2023/12/28 10:15:28;;;;;;;14.73;3.30;;;;;;;18.92;74.58;100963.47;4988519;28;20026;-37
2023/12/28 10:17:53;;;;;;;13.43;3.20;;;;;;;18.94;74.22;100965.91;4987332;28;20022;-37
2023/12/28 10:20:18;;;;;;;15.48;4.00;;;;;;;18.96;74.26;100963.72;4992614;28;20038;-37
2023/12/28 10:22:44;;;;;;;11.25;3.35;;;;;;;18.96;74.14;100954.66;4990949;28;20387;-38
2023/12/28 10:25:10;;;;;;;13.27;3.65;;;;;;;18.97;73.92;100973.63;4995187;28;20456;-38
2023/12/28 10:27:42;;;;;;;13.85;3.47;;;;;;;18.98;73.93;100958.78;4971322;28;20026;-35
2023/12/28 10:30:09;;;;;;;14.05;3.88;;;;;;;19.00;73.39;100962.03;4983819;28;20112;-37
2023/12/28 10:32:35;;;;;;;19.35;4.28;;;;;;;18.99;73.20;100965.09;4980384;28;20038;-37
2023/12/28 10:35:01;;;;;;;17.33;3.70;;;;;;;18.97;73.50;100954.38;4982954;28;20072;-36
2023/12/28 10:37:26;;;;;;;20.52;3.90;;;;;;;18.95;73.08;100958.53;5000132;28;20032;-36
2023/12/28 10:39:53;;;;;;;16.45;4.05;;;;;;;18.91;73.16;100961.00;5001331;28;20149;-37
2023/12/28 10:42:47;;;;;;;19.52;5.40;;;;;;;18.89;72.85;100963.16;5000309;28;20089;-38
2023/12/28 10:45:14;;;;;;;28.05;5.70;;;;;;;18.87;73.06;100957.13;4991738;28;20045;-36
2023/12/28 10:47:43;;;;;;;37.95;8.68;;;;;;;18.84;72.88;100952.19;4983099;28;20109;-37
2023/12/28 10:50:10;;;;;;;41.00;8.80;;;;;;;18.81;72.88;100961.81;5000553;28;20054;-37
2023/12/28 10:52:37;;;;;;;42.20;9.52;;;;;;;18.79;72.65;100954.97;5016525;28;20034;-36
2023/12/28 10:55:18;;;;;;;38.20;9.25;;;;;;;18.77;73.11;100957.97;4982178;28;20053;-37
2023/12/28 10:57:59;;;;;;;41.15;8.90;;;;;;;18.76;73.19;100959.06;5002890;28;20386;-37
2023/12/28 11:00:26;;;;;;;38.70;8.63;;;;;;;18.76;73.30;100959.06;4983492;28;20079;-37
2023/12/28 11:02:53;;;;;;;39.42;8.15;;;;;;;18.77;73.31;100966.22;4986173;28;20026;-37
2023/12/28 11:05:22;;;;;;;31.67;8.13;;;;;;;18.75;73.49;100947.28;5001585;28;20033;-37
2023/12/28 11:07:53;;;;;;;33.30;7.38;;;;;;;18.76;73.59;100970.88;5003038;28;20034;-37
2023/12/28 11:10:20;;;;;;;28.10;6.90;;;;;;;18.74;73.48;100970.34;5002194;28;20453;-37
2023/12/28 11:12:45;;;;;;;29.58;7.15;;;;;;;18.75;73.30;100974.72;5003908;28;20034;-37
2023/12/28 11:15:11;;;;;;;24.92;6.55;;;;;;;18.74;73.23;100967.59;5002211;28;20041;-37
2023/12/28 11:17:37;;;;;;;27.10;6.50;;;;;;;18.74;72.97;100964.03;5002104;28;20037;-37